MEL weather

Melbourne International Airport
Melbourne, Victoria, Australia

Public forecast

Using degrees Celsius for public forecast. Weather courtesy of forecast.io.

METAR (pilot weather report)

Retrieved 2018/11/16 21:30 UTC (23 minutes ago):

YMML 162130Z 16015KT 9999 SCT030 14/06 Q1024 NOSIG

TAF (pilot weather forecast)

Forecast is more than 6 hours old.

Retrieved 2018/11/16 12:33 UTC (9 hours ago):

TAF YMML 161105Z 1612/1718 18008KT 9999 BKN030 FM162300 17015G25KT 9999 FEW035 FM170900 19009KT CAVOK FM171500 27006KT 9999 SCT008 PROB30 1717/1718 5000 BR BKN008